Troy, Alabama
Current Conditions -  °F | °C
As of 2:53 PM on Saturday 22 Nov 2014 (Local Time) from KTOI Reporting Station
Overcast Overcast  
Wind Chill: 66°   Ceiling: 3400
Heat Index: 66°   Visibility: 10mi
Dew Point: 51°   Wind: 16mph
Humidity: 59%   Direction: 110°ESE
Pressure: 30.19"   Gusts: 22mph
Location:  31.81°N, 85.97°W
Report Text: KTOI 222053Z AUTO 11014G19KT 10SM BKN034 OVC046 19/11 A3019 RMK AO2 SLP222 T01890106 56030
Loading
Personal Weather Stations






























Interactive Weather Map New forecast layout! Learn more

10-Day Weather Forecast

Advertisements
Track Severe Weather on mobile